sensor_id;sensor_type;location;lat;lon;timestamp;P1;durP1;ratioP1;P2;durP2;ratioP2
74959;SDS011;63518;49.572;1.106;2023-07-13T00:00:23;3.88;;;0.85;;
74959;SDS011;63518;49.572;1.106;2023-07-13T00:02:50;5.70;;;1.70;;
74959;SDS011;63518;49.572;1.106;2023-07-13T00:05:21;4.03;;;1.20;;
74959;SDS011;63518;49.572;1.106;2023-07-13T00:07:49;7.72;;;1.77;;
74959;SDS011;63518;49.572;1.106;2023-07-13T00:10:21;5.18;;;1.35;;
74959;SDS011;63518;49.572;1.106;2023-07-13T00:12:59;5.10;;;1.50;;
74959;SDS011;63518;49.572;1.106;2023-07-13T00:15:46;5.45;;;1.30;;
74959;SDS011;63518;49.572;1.106;2023-07-13T00:18:33;6.10;;;1.52;;
74959;SDS011;63518;49.572;1.106;2023-07-13T00:21:18;4.65;;;1.60;;
74959;SDS011;63518;49.572;1.106;2023-07-13T00:23:45;5.32;;;1.10;;
74959;SDS011;63518;49.572;1.106;2023-07-13T00:26:12;6.07;;;1.50;;
74959;SDS011;63518;49.572;1.106;2023-07-13T00:28:40;4.38;;;1.70;;
74959;SDS011;63518;49.572;1.106;2023-07-13T00:31:11;5.53;;;1.63;;
74959;SDS011;63518;49.572;1.106;2023-07-13T00:33:41;5.63;;;1.23;;
74959;SDS011;63518;49.572;1.106;2023-07-13T00:36:09;4.20;;;1.05;;
74959;SDS011;63518;49.572;1.106;2023-07-13T00:38:53;3.63;;;1.08;;
74959;SDS011;63518;49.572;1.106;2023-07-13T00:41:32;5.80;;;1.73;;
74959;SDS011;63518;49.572;1.106;2023-07-13T00:44:15;4.13;;;1.55;;
74959;SDS011;63518;49.572;1.106;2023-07-13T00:47:14;3.97;;;1.23;;
74959;SDS011;63518;49.572;1.106;2023-07-13T00:49:55;3.40;;;1.23;;
74959;SDS011;63518;49.572;1.106;2023-07-13T00:52:46;5.78;;;1.70;;
74959;SDS011;63518;49.572;1.106;2023-07-13T00:55:31;6.75;;;1.70;;
74959;SDS011;63518;49.572;1.106;2023-07-13T00:58:12;4.68;;;1.45;;
74959;SDS011;63518;49.572;1.106;2023-07-13T01:00:49;4.13;;;0.90;;
74959;SDS011;63518;49.572;1.106;2023-07-13T01:03:48;3.72;;;1.20;;
74959;SDS011;63518;49.572;1.106;2023-07-13T01:06:46;3.63;;;1.30;;
74959;SDS011;63518;49.572;1.106;2023-07-13T01:09:19;6.10;;;1.38;;
74959;SDS011;63518;49.572;1.106;2023-07-13T01:11:55;6.05;;;1.50;;
74959;SDS011;63518;49.572;1.106;2023-07-13T01:14:26;3.95;;;1.42;;
74959;SDS011;63518;49.572;1.106;2023-07-13T01:17:33;4.75;;;1.10;;
74959;SDS011;63518;49.572;1.106;2023-07-13T01:20:04;5.00;;;1.70;;
74959;SDS011;63518;49.572;1.106;2023-07-13T01:22:42;4.68;;;1.40;;
74959;SDS011;63518;49.572;1.106;2023-07-13T01:25:21;6.25;;;1.35;;
74959;SDS011;63518;49.572;1.106;2023-07-13T01:28:05;3.60;;;1.17;;
74959;SDS011;63518;49.572;1.106;2023-07-13T01:30:39;4.40;;;1.50;;
74959;SDS011;63518;49.572;1.106;2023-07-13T01:33:21;4.10;;;1.15;;
74959;SDS011;63518;49.572;1.106;2023-07-13T01:35:51;4.45;;;1.40;;
74959;SDS011;63518;49.572;1.106;2023-07-13T01:38:30;5.47;;;1.50;;
74959;SDS011;63518;49.572;1.106;2023-07-13T01:41:32;4.18;;;1.50;;
74959;SDS011;63518;49.572;1.106;2023-07-13T01:44:32;4.10;;;1.33;;
74959;SDS011;63518;49.572;1.106;2023-07-13T01:47:04;5.10;;;1.23;;
74959;SDS011;63518;49.572;1.106;2023-07-13T01:49:47;3.72;;;1.38;;
74959;SDS011;63518;49.572;1.106;2023-07-13T01:52:46;5.25;;;1.60;;
74959;SDS011;63518;49.572;1.106;2023-07-13T01:55:33;4.25;;;1.30;;
74959;SDS011;63518;49.572;1.106;2023-07-13T01:58:27;3.50;;;1.20;;
74959;SDS011;63518;49.572;1.106;2023-07-13T02:00:56;4.32;;;1.40;;
74959;SDS011;63518;49.572;1.106;2023-07-13T02:03:38;5.63;;;1.55;;
74959;SDS011;63518;49.572;1.106;2023-07-13T02:06:19;5.75;;;1.58;;
74959;SDS011;63518;49.572;1.106;2023-07-13T02:08:58;6.05;;;2.10;;
74959;SDS011;63518;49.572;1.106;2023-07-13T02:11:40;6.50;;;1.70;;
74959;SDS011;63518;49.572;1.106;2023-07-13T02:14:07;5.32;;;1.35;;
74959;SDS011;63518;49.572;1.106;2023-07-13T02:16:34;5.82;;;1.60;;
74959;SDS011;63518;49.572;1.106;2023-07-13T02:19:16;4.90;;;1.38;;
74959;SDS011;63518;49.572;1.106;2023-07-13T02:22:10;5.47;;;1.92;;
74959;SDS011;63518;49.572;1.106;2023-07-13T02:25:16;5.15;;;1.70;;
74959;SDS011;63518;49.572;1.106;2023-07-13T02:28:03;3.75;;;1.45;;
74959;SDS011;63518;49.572;1.106;2023-07-13T02:30:52;6.18;;;1.30;;
74959;SDS011;63518;49.572;1.106;2023-07-13T02:33:20;4.05;;;1.77;;
74959;SDS011;63518;49.572;1.106;2023-07-13T02:36:02;4.38;;;1.38;;
74959;SDS011;63518;49.572;1.106;2023-07-13T02:38:39;5.25;;;1.30;;
74959;SDS011;63518;49.572;1.106;2023-07-13T02:41:18;6.05;;;1.50;;
74959;SDS011;63518;49.572;1.106;2023-07-13T02:43:57;5.82;;;1.27;;
74959;SDS011;63518;49.572;1.106;2023-07-13T02:46:39;4.85;;;1.45;;
74959;SDS011;63518;49.572;1.106;2023-07-13T02:49:42;4.07;;;1.30;;
74959;SDS011;63518;49.572;1.106;2023-07-13T02:52:26;4.93;;;1.60;;
74959;SDS011;63518;49.572;1.106;2023-07-13T02:55:30;4.60;;;1.20;;
74959;SDS011;63518;49.572;1.106;2023-07-13T02:58:10;4.68;;;1.25;;
74959;SDS011;63518;49.572;1.106;2023-07-13T03:01:05;7.55;;;1.50;;
74959;SDS011;63518;49.572;1.106;2023-07-13T03:04:04;5.20;;;1.60;;
74959;SDS011;63518;49.572;1.106;2023-07-13T03:06:34;4.65;;;1.48;;
74959;SDS011;63518;49.572;1.106;2023-07-13T03:09:07;5.55;;;1.60;;
74959;SDS011;63518;49.572;1.106;2023-07-13T03:11:57;4.70;;;1.42;;
74959;SDS011;63518;49.572;1.106;2023-07-13T03:14:26;4.85;;;1.50;;
74959;SDS011;63518;49.572;1.106;2023-07-13T03:17:34;3.70;;;1.30;;
74959;SDS011;63518;49.572;1.106;2023-07-13T03:20:20;5.80;;;1.27;;
74959;SDS011;63518;49.572;1.106;2023-07-13T03:23:11;4.40;;;1.30;;
74959;SDS011;63518;49.572;1.106;2023-07-13T03:26:19;4.43;;;1.60;;
74959;SDS011;63518;49.572;1.106;2023-07-13T03:28:58;4.75;;;1.42;;
74959;SDS011;63518;49.572;1.106;2023-07-13T03:31:55;4.07;;;1.35;;
74959;SDS011;63518;49.572;1.106;2023-07-13T03:34:46;5.97;;;1.45;;
74959;SDS011;63518;49.572;1.106;2023-07-13T03:37:25;6.07;;;1.73;;
74959;SDS011;63518;49.572;1.106;2023-07-13T03:40:09;5.15;;;1.50;;
74959;SDS011;63518;49.572;1.106;2023-07-13T03:43:01;6.00;;;1.70;;
74959;SDS011;63518;49.572;1.106;2023-07-13T03:45:43;8.10;;;1.65;;
74959;SDS011;63518;49.572;1.106;2023-07-13T03:48:40;7.25;;;1.30;;
74959;SDS011;63518;49.572;1.106;2023-07-13T03:51:14;4.82;;;1.30;;
74959;SDS011;63518;49.572;1.106;2023-07-13T03:54:12;6.28;;;2.00;;
74959;SDS011;63518;49.572;1.106;2023-07-13T03:56:40;8.15;;;1.50;;
74959;SDS011;63518;49.572;1.106;2023-07-13T03:59:12;4.78;;;1.77;;
74959;SDS011;63518;49.572;1.106;2023-07-13T04:01:55;4.35;;;1.48;;
74959;SDS011;63518;49.572;1.106;2023-07-13T04:04:24;7.00;;;2.03;;
74959;SDS011;63518;49.572;1.106;2023-07-13T04:06:59;4.53;;;1.73;;
74959;SDS011;63518;49.572;1.106;2023-07-13T04:09:33;5.88;;;1.58;;
74959;SDS011;63518;49.572;1.106;2023-07-13T04:12:12;3.55;;;1.17;;
74959;SDS011;63518;49.572;1.106;2023-07-13T04:17:30;6.90;;;1.33;;
74959;SDS011;63518;49.572;1.106;2023-07-13T04:20:03;5.80;;;1.50;;
74959;SDS011;63518;49.572;1.106;2023-07-13T04:22:31;6.28;;;1.40;;
74959;SDS011;63518;49.572;1.106;2023-07-13T04:25:22;5.95;;;1.20;;
74959;SDS011;63518;49.572;1.106;2023-07-13T04:28:05;4.63;;;1.40;;
74959;SDS011;63518;49.572;1.106;2023-07-13T04:31:01;7.22;;;1.60;;
74959;SDS011;63518;49.572;1.106;2023-07-13T04:34:10;3.58;;;1.17;;
74959;SDS011;63518;49.572;1.106;2023-07-13T04:36:45;4.97;;;1.23;;
74959;SDS011;63518;49.572;1.106;2023-07-13T04:39:48;6.75;;;1.63;;
74959;SDS011;63518;49.572;1.106;2023-07-13T04:42:27;5.95;;;1.70;;
74959;SDS011;63518;49.572;1.106;2023-07-13T04:45:13;4.80;;;1.30;;
74959;SDS011;63518;49.572;1.106;2023-07-13T04:48:02;6.68;;;2.00;;
74959;SDS011;63518;49.572;1.106;2023-07-13T04:50:44;4.50;;;1.40;;
74959;SDS011;63518;49.572;1.106;2023-07-13T04:53:25;7.03;;;1.55;;
74959;SDS011;63518;49.572;1.106;2023-07-13T04:55:53;5.28;;;2.00;;
74959;SDS011;63518;49.572;1.106;2023-07-13T04:58:40;6.32;;;1.58;;
74959;SDS011;63518;49.572;1.106;2023-07-13T05:01:11;5.95;;;1.75;;
74959;SDS011;63518;49.572;1.106;2023-07-13T05:03:49;5.50;;;1.52;;
74959;SDS011;63518;49.572;1.106;2023-07-13T05:06:35;4.35;;;1.48;;
74959;SDS011;63518;49.572;1.106;2023-07-13T05:09:35;4.60;;;1.30;;
74959;SDS011;63518;49.572;1.106;2023-07-13T05:12:41;7.18;;;2.03;;
74959;SDS011;63518;49.572;1.106;2023-07-13T05:15:26;5.78;;;1.77;;
74959;SDS011;63518;49.572;1.106;2023-07-13T05:18:37;4.18;;;1.58;;
74959;SDS011;63518;49.572;1.106;2023-07-13T05:21:27;4.93;;;1.88;;
74959;SDS011;63518;49.572;1.106;2023-07-13T05:23:54;7.72;;;1.80;;
74959;SDS011;63518;49.572;1.106;2023-07-13T05:26:24;5.72;;;1.52;;
74959;SDS011;63518;49.572;1.106;2023-07-13T05:28:58;10.18;;;2.20;;
74959;SDS011;63518;49.572;1.106;2023-07-13T05:31:25;4.78;;;1.75;;
74959;SDS011;63518;49.572;1.106;2023-07-13T05:33:53;8.77;;;1.60;;
74959;SDS011;63518;49.572;1.106;2023-07-13T05:36:20;5.05;;;1.67;;
74959;SDS011;63518;49.572;1.106;2023-07-13T05:38:47;4.93;;;1.73;;
74959;SDS011;63518;49.572;1.106;2023-07-13T05:41:14;8.52;;;1.58;;
74959;SDS011;63518;49.572;1.106;2023-07-13T05:43:51;6.80;;;1.70;;
74959;SDS011;63518;49.572;1.106;2023-07-13T05:46:21;5.05;;;1.52;;
74959;SDS011;63518;49.572;1.106;2023-07-13T05:48:50;5.10;;;1.77;;
74959;SDS011;63518;49.572;1.106;2023-07-13T05:51:18;4.57;;;1.60;;
74959;SDS011;63518;49.572;1.106;2023-07-13T05:53:45;7.03;;;2.80;;
74959;SDS011;63518;49.572;1.106;2023-07-13T05:56:13;7.95;;;1.70;;
74959;SDS011;63518;49.572;1.106;2023-07-13T05:58:40;6.80;;;1.73;;
74959;SDS011;63518;49.572;1.106;2023-07-13T06:01:10;6.20;;;1.85;;
74959;SDS011;63518;49.572;1.106;2023-07-13T06:03:40;6.60;;;1.55;;
74959;SDS011;63518;49.572;1.106;2023-07-13T06:06:08;6.75;;;1.75;;
74959;SDS011;63518;49.572;1.106;2023-07-13T06:08:49;6.35;;;2.00;;
74959;SDS011;63518;49.572;1.106;2023-07-13T06:11:19;7.45;;;2.25;;
74959;SDS011;63518;49.572;1.106;2023-07-13T06:13:48;5.35;;;1.83;;
74959;SDS011;63518;49.572;1.106;2023-07-13T06:16:16;6.68;;;1.60;;
74959;SDS011;63518;49.572;1.106;2023-07-13T06:18:44;4.97;;;1.20;;
74959;SDS011;63518;49.572;1.106;2023-07-13T06:21:17;7.00;;;2.25;;
74959;SDS011;63518;49.572;1.106;2023-07-13T06:23:50;6.25;;;1.25;;
74959;SDS011;63518;49.572;1.106;2023-07-13T06:26:39;7.07;;;2.10;;
74959;SDS011;63518;49.572;1.106;2023-07-13T06:29:17;5.40;;;1.17;;
74959;SDS011;63518;49.572;1.106;2023-07-13T06:32:15;6.40;;;2.28;;
74959;SDS011;63518;49.572;1.106;2023-07-13T06:34:43;6.28;;;1.88;;
74959;SDS011;63518;49.572;1.106;2023-07-13T06:37:10;10.35;;;1.90;;
74959;SDS011;63518;49.572;1.106;2023-07-13T06:39:49;4.55;;;1.70;;
74959;SDS011;63518;49.572;1.106;2023-07-13T06:42:23;6.72;;;1.75;;
74959;SDS011;63518;49.572;1.106;2023-07-13T06:44:51;4.15;;;1.80;;
74959;SDS011;63518;49.572;1.106;2023-07-13T06:47:18;6.10;;;1.85;;
74959;SDS011;63518;49.572;1.106;2023-07-13T06:49:46;5.97;;;1.67;;
74959;SDS011;63518;49.572;1.106;2023-07-13T06:52:19;6.47;;;1.90;;
74959;SDS011;63518;49.572;1.106;2023-07-13T06:54:48;7.47;;;1.75;;
74959;SDS011;63518;49.572;1.106;2023-07-13T06:57:25;6.50;;;2.35;;
74959;SDS011;63518;49.572;1.106;2023-07-13T06:59:57;5.50;;;1.88;;
74959;SDS011;63518;49.572;1.106;2023-07-13T07:02:26;6.78;;;1.92;;
74959;SDS011;63518;49.572;1.106;2023-07-13T07:05:00;5.65;;;1.38;;
74959;SDS011;63518;49.572;1.106;2023-07-13T07:07:42;5.97;;;1.88;;
74959;SDS011;63518;49.572;1.106;2023-07-13T07:10:30;8.57;;;1.70;;
74959;SDS011;63518;49.572;1.106;2023-07-13T07:13:02;6.03;;;1.58;;
74959;SDS011;63518;49.572;1.106;2023-07-13T07:15:30;8.18;;;2.30;;
74959;SDS011;63518;49.572;1.106;2023-07-13T07:17:58;6.13;;;1.70;;
74959;SDS011;63518;49.572;1.106;2023-07-13T07:23:12;6.28;;;1.70;;
74959;SDS011;63518;49.572;1.106;2023-07-13T07:25:53;7.78;;;2.30;;
74959;SDS011;63518;49.572;1.106;2023-07-13T07:28:21;10.68;;;1.98;;
74959;SDS011;63518;49.572;1.106;2023-07-13T07:31:15;5.57;;;1.80;;
74959;SDS011;63518;49.572;1.106;2023-07-13T07:33:48;4.95;;;1.38;;
74959;SDS011;63518;49.572;1.106;2023-07-13T07:36:21;7.20;;;1.65;;
74959;SDS011;63518;49.572;1.106;2023-07-13T07:38:52;5.82;;;1.98;;
74959;SDS011;63518;49.572;1.106;2023-07-13T07:41:19;7.20;;;1.80;;
74959;SDS011;63518;49.572;1.106;2023-07-13T07:43:52;5.68;;;1.80;;
74959;SDS011;63518;49.572;1.106;2023-07-13T07:46:19;7.45;;;1.75;;
74959;SDS011;63518;49.572;1.106;2023-07-13T07:48:46;5.85;;;2.00;;
74959;SDS011;63518;49.572;1.106;2023-07-13T07:51:13;4.35;;;1.60;;
74959;SDS011;63518;49.572;1.106;2023-07-13T07:53:40;5.20;;;1.80;;
74959;SDS011;63518;49.572;1.106;2023-07-13T07:56:16;8.88;;;2.42;;
74959;SDS011;63518;49.572;1.106;2023-07-13T07:58:49;5.88;;;1.70;;
74959;SDS011;63518;49.572;1.106;2023-07-13T08:01:28;4.75;;;1.67;;
74959;SDS011;63518;49.572;1.106;2023-07-13T08:04:00;7.03;;;2.00;;
74959;SDS011;63518;49.572;1.106;2023-07-13T08:06:34;4.95;;;1.80;;
74959;SDS011;63518;49.572;1.106;2023-07-13T08:09:03;4.70;;;1.70;;
74959;SDS011;63518;49.572;1.106;2023-07-13T08:11:33;8.57;;;2.15;;
74959;SDS011;63518;49.572;1.106;2023-07-13T08:14:04;7.80;;;2.35;;
74959;SDS011;63518;49.572;1.106;2023-07-13T08:16:31;7.82;;;2.40;;
74959;SDS011;63518;49.572;1.106;2023-07-13T08:18:59;6.00;;;2.28;;
74959;SDS011;63518;49.572;1.106;2023-07-13T08:21:26;6.95;;;2.50;;
74959;SDS011;63518;49.572;1.106;2023-07-13T08:23:55;6.43;;;2.42;;
74959;SDS011;63518;49.572;1.106;2023-07-13T08:26:22;7.20;;;2.08;;
74959;SDS011;63518;49.572;1.106;2023-07-13T08:28:49;7.25;;;2.63;;
74959;SDS011;63518;49.572;1.106;2023-07-13T08:31:16;12.18;;;3.05;;
74959;SDS011;63518;49.572;1.106;2023-07-13T08:33:43;9.00;;;2.83;;
74959;SDS011;63518;49.572;1.106;2023-07-13T08:36:10;10.30;;;3.10;;
74959;SDS011;63518;49.572;1.106;2023-07-13T08:38:37;9.27;;;2.92;;
74959;SDS011;63518;49.572;1.106;2023-07-13T08:41:16;6.95;;;2.67;;
74959;SDS011;63518;49.572;1.106;2023-07-13T08:43:56;6.43;;;2.17;;
74959;SDS011;63518;49.572;1.106;2023-07-13T08:46:26;6.22;;;2.28;;
74959;SDS011;63518;49.572;1.106;2023-07-13T08:54:21;8.20;;;2.95;;
74959;SDS011;63518;49.572;1.106;2023-07-13T08:56:48;9.68;;;3.28;;
74959;SDS011;63518;49.572;1.106;2023-07-13T08:59:20;7.80;;;3.17;;
74959;SDS011;63518;49.572;1.106;2023-07-13T09:01:54;6.45;;;3.10;;
74959;SDS011;63518;49.572;1.106;2023-07-13T09:12:46;7.28;;;2.78;;
74959;SDS011;63518;49.572;1.106;2023-07-13T09:17:59;9.55;;;3.53;;
74959;SDS011;63518;49.572;1.106;2023-07-13T09:20:40;10.30;;;3.22;;
74959;SDS011;63518;49.572;1.106;2023-07-13T09:23:12;5.47;;;2.50;;
74959;SDS011;63518;49.572;1.106;2023-07-13T09:25:45;4.72;;;2.47;;
74959;SDS011;63518;49.572;1.106;2023-07-13T09:28:23;7.85;;;2.70;;
74959;SDS011;63518;49.572;1.106;2023-07-13T09:30:56;6.88;;;2.30;;
74959;SDS011;63518;49.572;1.106;2023-07-13T09:33:34;6.63;;;2.58;;
74959;SDS011;63518;49.572;1.106;2023-07-13T09:36:05;6.05;;;2.08;;
74959;SDS011;63518;49.572;1.106;2023-07-13T09:38:59;4.78;;;2.13;;
74959;SDS011;63518;49.572;1.106;2023-07-13T09:44:14;5.70;;;1.90;;
74959;SDS011;63518;49.572;1.106;2023-07-13T09:46:46;4.38;;;1.80;;
74959;SDS011;63518;49.572;1.106;2023-07-13T09:49:18;5.07;;;1.45;;
74959;SDS011;63518;49.572;1.106;2023-07-13T09:51:57;4.95;;;1.77;;
74959;SDS011;63518;49.572;1.106;2023-07-13T09:54:28;4.47;;;2.10;;
74959;SDS011;63518;49.572;1.106;2023-07-13T09:56:56;5.50;;;1.45;;
74959;SDS011;63518;49.572;1.106;2023-07-13T09:59:28;6.40;;;2.08;;
74959;SDS011;63518;49.572;1.106;2023-07-13T10:02:00;3.67;;;1.63;;
74959;SDS011;63518;49.572;1.106;2023-07-13T10:04:29;4.53;;;1.60;;
74959;SDS011;63518;49.572;1.106;2023-07-13T10:07:06;3.90;;;1.05;;
74959;SDS011;63518;49.572;1.106;2023-07-13T10:09:55;4.90;;;1.92;;
74959;SDS011;63518;49.572;1.106;2023-07-13T10:12:23;4.22;;;1.77;;
74959;SDS011;63518;49.572;1.106;2023-07-13T10:14:52;5.60;;;1.80;;
74959;SDS011;63518;49.572;1.106;2023-07-13T10:17:38;5.35;;;2.15;;
74959;SDS011;63518;49.572;1.106;2023-07-13T10:20:07;6.47;;;1.92;;
74959;SDS011;63518;49.572;1.106;2023-07-13T10:22:45;4.68;;;1.85;;
74959;SDS011;63518;49.572;1.106;2023-07-13T10:25:20;4.20;;;1.77;;
74959;SDS011;63518;49.572;1.106;2023-07-13T10:27:52;4.80;;;2.08;;
74959;SDS011;63518;49.572;1.106;2023-07-13T10:30:33;6.47;;;1.73;;
74959;SDS011;63518;49.572;1.106;2023-07-13T10:33:08;4.30;;;1.85;;
74959;SDS011;63518;49.572;1.106;2023-07-13T10:35:39;5.45;;;2.38;;
74959;SDS011;63518;49.572;1.106;2023-07-13T10:38:13;5.85;;;1.80;;
74959;SDS011;63518;49.572;1.106;2023-07-13T10:40:54;4.88;;;1.50;;
74959;SDS011;63518;49.572;1.106;2023-07-13T10:43:29;5.75;;;1.70;;
74959;SDS011;63518;49.572;1.106;2023-07-13T10:46:25;4.10;;;1.17;;
74959;SDS011;63518;49.572;1.106;2023-07-13T10:48:55;5.93;;;1.45;;
74959;SDS011;63518;49.572;1.106;2023-07-13T10:51:31;5.80;;;1.77;;
74959;SDS011;63518;49.572;1.106;2023-07-13T10:54:15;4.00;;;1.42;;
74959;SDS011;63518;49.572;1.106;2023-07-13T10:57:34;4.65;;;1.40;;
74959;SDS011;63518;49.572;1.106;2023-07-13T10:59:48;5.28;;;2.25;;
74959;SDS011;63518;49.572;1.106;2023-07-13T11:02:25;5.30;;;1.38;;
74959;SDS011;63518;49.572;1.106;2023-07-13T11:04:55;4.82;;;1.10;;
74959;SDS011;63518;49.572;1.106;2023-07-13T11:07:26;4.30;;;1.20;;
74959;SDS011;63518;49.572;1.106;2023-07-13T11:09:57;3.60;;;1.40;;
74959;SDS011;63518;49.572;1.106;2023-07-13T11:15:26;3.80;;;1.35;;
74959;SDS011;63518;49.572;1.106;2023-07-13T11:17:56;4.25;;;1.00;;
74959;SDS011;63518;49.572;1.106;2023-07-13T11:20:31;3.47;;;1.20;;
74959;SDS011;63518;49.572;1.106;2023-07-13T11:25:42;5.43;;;1.55;;
74959;SDS011;63518;49.572;1.106;2023-07-13T11:30:40;5.28;;;1.40;;
74959;SDS011;63518;49.572;1.106;2023-07-13T11:33:23;3.28;;;0.82;;
74959;SDS011;63518;49.572;1.106;2023-07-13T11:38:28;3.90;;;1.15;;
74959;SDS011;63518;49.572;1.106;2023-07-13T11:41:00;3.53;;;0.80;;
74959;SDS011;63518;49.572;1.106;2023-07-13T11:43:36;4.45;;;0.90;;
74959;SDS011;63518;49.572;1.106;2023-07-13T11:46:16;5.45;;;1.50;;
74959;SDS011;63518;49.572;1.106;2023-07-13T11:48:51;3.75;;;1.50;;
74959;SDS011;63518;49.572;1.106;2023-07-13T11:51:20;2.72;;;0.98;;
74959;SDS011;63518;49.572;1.106;2023-07-13T11:54:00;4.00;;;1.25;;
74959;SDS011;63518;49.572;1.106;2023-07-13T11:56:30;5.43;;;1.50;;
74959;SDS011;63518;49.572;1.106;2023-07-13T11:59:03;4.28;;;1.20;;
74959;SDS011;63518;49.572;1.106;2023-07-13T12:01:32;4.03;;;1.20;;
74959;SDS011;63518;49.572;1.106;2023-07-13T12:04:03;3.60;;;1.20;;
74959;SDS011;63518;49.572;1.106;2023-07-13T12:06:31;4.85;;;1.40;;
74959;SDS011;63518;49.572;1.106;2023-07-13T12:09:11;2.75;;;0.70;;
74959;SDS011;63518;49.572;1.106;2023-07-13T12:11:44;4.10;;;1.20;;
74959;SDS011;63518;49.572;1.106;2023-07-13T12:14:17;3.80;;;1.00;;
74959;SDS011;63518;49.572;1.106;2023-07-13T12:16:45;3.53;;;0.80;;
74959;SDS011;63518;49.572;1.106;2023-07-13T12:19:24;5.75;;;1.40;;
74959;SDS011;63518;49.572;1.106;2023-07-13T12:21:54;3.10;;;1.10;;
74959;SDS011;63518;49.572;1.106;2023-07-13T12:24:23;3.80;;;1.40;;
74959;SDS011;63518;49.572;1.106;2023-07-13T12:27:01;3.75;;;1.20;;
74959;SDS011;63518;49.572;1.106;2023-07-13T12:29:33;4.18;;;1.45;;
74959;SDS011;63518;49.572;1.106;2023-07-13T12:31:59;4.00;;;1.40;;
74959;SDS011;63518;49.572;1.106;2023-07-13T12:34:26;4.63;;;1.38;;
74959;SDS011;63518;49.572;1.106;2023-07-13T12:37:00;4.63;;;1.27;;
74959;SDS011;63518;49.572;1.106;2023-07-13T12:39:36;4.93;;;1.40;;
74959;SDS011;63518;49.572;1.106;2023-07-13T12:42:26;4.40;;;1.60;;
74959;SDS011;63518;49.572;1.106;2023-07-13T12:45:03;3.70;;;1.50;;
74959;SDS011;63518;49.572;1.106;2023-07-13T12:47:58;4.55;;;1.40;;
74959;SDS011;63518;49.572;1.106;2023-07-13T12:50:37;3.30;;;1.15;;
74959;SDS011;63518;49.572;1.106;2023-07-13T12:53:13;4.07;;;1.20;;
74959;SDS011;63518;49.572;1.106;2023-07-13T12:55:43;4.95;;;1.35;;
74959;SDS011;63518;49.572;1.106;2023-07-13T12:58:17;4.13;;;1.30;;
74959;SDS011;63518;49.572;1.106;2023-07-13T13:00:56;5.05;;;1.35;;
74959;SDS011;63518;49.572;1.106;2023-07-13T13:03:49;6.43;;;1.60;;
74959;SDS011;63518;49.572;1.106;2023-07-13T13:08:45;5.03;;;1.33;;
74959;SDS011;63518;49.572;1.106;2023-07-13T13:11:15;2.85;;;1.33;;
74959;SDS011;63518;49.572;1.106;2023-07-13T13:13:43;3.33;;;1.17;;
74959;SDS011;63518;49.572;1.106;2023-07-13T13:16:15;3.30;;;1.15;;
74959;SDS011;63518;49.572;1.106;2023-07-13T13:18:49;3.45;;;1.45;;
74959;SDS011;63518;49.572;1.106;2023-07-13T13:21:18;3.25;;;1.10;;
74959;SDS011;63518;49.572;1.106;2023-07-13T13:23:45;2.78;;;0.90;;
74959;SDS011;63518;49.572;1.106;2023-07-13T13:26:14;4.32;;;1.13;;
74959;SDS011;63518;49.572;1.106;2023-07-13T13:28:45;3.55;;;1.20;;
74959;SDS011;63518;49.572;1.106;2023-07-13T13:31:14;4.03;;;1.10;;
74959;SDS011;63518;49.572;1.106;2023-07-13T13:33:42;3.75;;;1.25;;
74959;SDS011;63518;49.572;1.106;2023-07-13T13:36:13;3.92;;;0.80;;
74959;SDS011;63518;49.572;1.106;2023-07-13T13:38:45;3.83;;;1.52;;
74959;SDS011;63518;49.572;1.106;2023-07-13T13:41:14;3.47;;;1.30;;
74959;SDS011;63518;49.572;1.106;2023-07-13T13:43:41;4.80;;;1.38;;
74959;SDS011;63518;49.572;1.106;2023-07-13T13:46:20;3.22;;;1.25;;
74959;SDS011;63518;49.572;1.106;2023-07-13T13:51:19;3.35;;;1.30;;
74959;SDS011;63518;49.572;1.106;2023-07-13T13:53:47;3.20;;;1.13;;
74959;SDS011;63518;49.572;1.106;2023-07-13T13:56:15;4.28;;;1.27;;
74959;SDS011;63518;49.572;1.106;2023-07-13T13:58:45;3.97;;;1.33;;
74959;SDS011;63518;49.572;1.106;2023-07-13T14:01:13;3.50;;;1.05;;
74959;SDS011;63518;49.572;1.106;2023-07-13T14:03:45;4.53;;;1.27;;
74959;SDS011;63518;49.572;1.106;2023-07-13T14:06:14;4.28;;;1.63;;
74959;SDS011;63518;49.572;1.106;2023-07-13T14:08:42;4.13;;;1.33;;
74959;SDS011;63518;49.572;1.106;2023-07-13T14:11:13;4.68;;;1.30;;
74959;SDS011;63518;49.572;1.106;2023-07-13T14:13:45;4.47;;;1.65;;
74959;SDS011;63518;49.572;1.106;2023-07-13T14:16:17;4.85;;;1.63;;
74959;SDS011;63518;49.572;1.106;2023-07-13T14:18:49;4.68;;;1.88;;
74959;SDS011;63518;49.572;1.106;2023-07-13T14:21:17;4.03;;;0.90;;
74959;SDS011;63518;49.572;1.106;2023-07-13T14:23:46;5.20;;;1.60;;
74959;SDS011;63518;49.572;1.106;2023-07-13T14:26:15;3.63;;;1.20;;
74959;SDS011;63518;49.572;1.106;2023-07-13T14:28:45;5.32;;;1.80;;
74959;SDS011;63518;49.572;1.106;2023-07-13T14:31:15;4.45;;;1.52;;
74959;SDS011;63518;49.572;1.106;2023-07-13T14:33:44;6.25;;;2.08;;
74959;SDS011;63518;49.572;1.106;2023-07-13T14:39:16;4.50;;;1.52;;
74959;SDS011;63518;49.572;1.106;2023-07-13T14:41:45;4.75;;;1.27;;
74959;SDS011;63518;49.572;1.106;2023-07-13T14:44:13;4.57;;;1.70;;
74959;SDS011;63518;49.572;1.106;2023-07-13T14:46:42;4.85;;;1.40;;
74959;SDS011;63518;49.572;1.106;2023-07-13T14:51:52;4.88;;;1.58;;
74959;SDS011;63518;49.572;1.106;2023-07-13T14:54:24;6.65;;;0.95;;
74959;SDS011;63518;49.572;1.106;2023-07-13T14:56:52;4.43;;;1.70;;
74959;SDS011;63518;49.572;1.106;2023-07-13T14:59:19;4.47;;;1.48;;
74959;SDS011;63518;49.572;1.106;2023-07-13T15:01:46;5.03;;;1.98;;
74959;SDS011;63518;49.572;1.106;2023-07-13T15:04:15;4.03;;;1.35;;
74959;SDS011;63518;49.572;1.106;2023-07-13T15:09:29;5.15;;;1.73;;
74959;SDS011;63518;49.572;1.106;2023-07-13T15:11:56;5.13;;;1.25;;
74959;SDS011;63518;49.572;1.106;2023-07-13T15:14:24;5.13;;;1.85;;
74959;SDS011;63518;49.572;1.106;2023-07-13T15:16:58;6.00;;;1.73;;
74959;SDS011;63518;49.572;1.106;2023-07-13T15:19:25;3.85;;;1.33;;
74959;SDS011;63518;49.572;1.106;2023-07-13T15:21:55;4.03;;;0.90;;
74959;SDS011;63518;49.572;1.106;2023-07-13T15:24:24;4.53;;;1.58;;
74959;SDS011;63518;49.572;1.106;2023-07-13T15:26:51;4.50;;;1.67;;
74959;SDS011;63518;49.572;1.106;2023-07-13T15:29:19;5.65;;;1.70;;
74959;SDS011;63518;49.572;1.106;2023-07-13T15:31:46;6.90;;;1.70;;
74959;SDS011;63518;49.572;1.106;2023-07-13T15:34:16;4.95;;;1.30;;
74959;SDS011;63518;49.572;1.106;2023-07-13T15:36:47;4.93;;;1.80;;
74959;SDS011;63518;49.572;1.106;2023-07-13T15:39:15;4.10;;;1.60;;
74959;SDS011;63518;49.572;1.106;2023-07-13T15:41:43;4.45;;;1.55;;
74959;SDS011;63518;49.572;1.106;2023-07-13T15:44:22;4.47;;;1.73;;
74959;SDS011;63518;49.572;1.106;2023-07-13T15:46:57;5.38;;;1.90;;
74959;SDS011;63518;49.572;1.106;2023-07-13T15:49:27;3.90;;;1.50;;
74959;SDS011;63518;49.572;1.106;2023-07-13T15:51:54;6.05;;;1.80;;
74959;SDS011;63518;49.572;1.106;2023-07-13T15:54:21;5.53;;;1.60;;
74959;SDS011;63518;49.572;1.106;2023-07-13T15:56:54;5.00;;;1.75;;
74959;SDS011;63518;49.572;1.106;2023-07-13T15:59:22;5.13;;;1.60;;
74959;SDS011;63518;49.572;1.106;2023-07-13T16:01:50;4.40;;;1.55;;
74959;SDS011;63518;49.572;1.106;2023-07-13T16:04:17;4.28;;;1.63;;
74959;SDS011;63518;49.572;1.106;2023-07-13T16:06:46;5.70;;;1.60;;
74959;SDS011;63518;49.572;1.106;2023-07-13T16:09:21;4.95;;;1.80;;
74959;SDS011;63518;49.572;1.106;2023-07-13T16:11:50;5.47;;;1.25;;
74959;SDS011;63518;49.572;1.106;2023-07-13T16:14:19;3.55;;;1.33;;
74959;SDS011;63518;49.572;1.106;2023-07-13T16:16:47;4.60;;;1.67;;
74959;SDS011;63518;49.572;1.106;2023-07-13T16:19:17;3.65;;;1.30;;
74959;SDS011;63518;49.572;1.106;2023-07-13T16:21:47;4.55;;;1.45;;
74959;SDS011;63518;49.572;1.106;2023-07-13T16:24:19;4.93;;;1.80;;
74959;SDS011;63518;49.572;1.106;2023-07-13T16:26:49;4.32;;;1.60;;